sensor_id;sensor_type;location;lat;lon;timestamp;P1;durP1;ratioP1;P2;durP2;ratioP2
78055;SDS011;67666;55.862;49.094;2023-02-28T00:01:31;4.30;;;3.42;;
78055;SDS011;67666;55.862;49.094;2023-02-28T00:03:57;3.60;;;3.13;;
78055;SDS011;67666;55.862;49.094;2023-02-28T00:08:50;4.38;;;3.22;;
78055;SDS011;67666;55.862;49.094;2023-02-28T00:11:16;3.80;;;3.22;;
78055;SDS011;67666;55.862;49.094;2023-02-28T00:13:44;3.88;;;2.88;;
78055;SDS011;67666;55.862;49.094;2023-02-28T00:16:16;4.40;;;3.45;;
78055;SDS011;67666;55.862;49.094;2023-02-28T00:18:45;4.28;;;3.40;;
78055;SDS011;67666;55.862;49.094;2023-02-28T00:21:13;4.20;;;3.72;;
78055;SDS011;67666;55.862;49.094;2023-02-28T00:23:39;4.38;;;3.42;;
78055;SDS011;67666;55.862;49.094;2023-02-28T00:26:06;4.20;;;3.40;;
78055;SDS011;67666;55.862;49.094;2023-02-28T00:28:32;4.68;;;3.47;;
78055;SDS011;67666;55.862;49.094;2023-02-28T00:30:59;3.75;;;2.78;;
78055;SDS011;67666;55.862;49.094;2023-02-28T00:33:26;3.45;;;3.15;;
78055;SDS011;67666;55.862;49.094;2023-02-28T00:36:03;4.15;;;3.65;;
78055;SDS011;67666;55.862;49.094;2023-02-28T00:38:36;3.65;;;3.20;;
78055;SDS011;67666;55.862;49.094;2023-02-28T00:41:03;4.20;;;3.30;;
78055;SDS011;67666;55.862;49.094;2023-02-28T00:43:31;4.53;;;3.67;;
78055;SDS011;67666;55.862;49.094;2023-02-28T00:45:58;4.20;;;3.47;;
78055;SDS011;67666;55.862;49.094;2023-02-28T00:48:25;4.60;;;3.65;;
78055;SDS011;67666;55.862;49.094;2023-02-28T00:50:51;4.25;;;3.47;;
78055;SDS011;67666;55.862;49.094;2023-02-28T00:53:17;4.20;;;3.30;;
78055;SDS011;67666;55.862;49.094;2023-02-28T00:55:44;4.40;;;3.40;;
78055;SDS011;67666;55.862;49.094;2023-02-28T00:58:10;4.15;;;3.50;;
78055;SDS011;67666;55.862;49.094;2023-02-28T01:00:37;4.38;;;3.55;;
78055;SDS011;67666;55.862;49.094;2023-02-28T01:03:03;4.53;;;3.60;;
78055;SDS011;67666;55.862;49.094;2023-02-28T01:05:29;4.13;;;3.45;;
78055;SDS011;67666;55.862;49.094;2023-02-28T01:07:56;4.07;;;3.22;;
78055;SDS011;67666;55.862;49.094;2023-02-28T01:10:22;4.25;;;3.38;;
78055;SDS011;67666;55.862;49.094;2023-02-28T01:12:49;4.25;;;3.40;;
78055;SDS011;67666;55.862;49.094;2023-02-28T01:15:15;3.42;;;3.13;;
78055;SDS011;67666;55.862;49.094;2023-02-28T01:17:42;5.07;;;3.80;;
78055;SDS011;67666;55.862;49.094;2023-02-28T01:20:08;4.55;;;3.58;;
78055;SDS011;67666;55.862;49.094;2023-02-28T01:22:35;3.72;;;3.10;;
78055;SDS011;67666;55.862;49.094;2023-02-28T01:25:02;5.00;;;3.92;;
78055;SDS011;67666;55.862;49.094;2023-02-28T01:27:31;4.05;;;3.25;;
78055;SDS011;67666;55.862;49.094;2023-02-28T01:29:57;4.35;;;3.47;;
78055;SDS011;67666;55.862;49.094;2023-02-28T01:32:24;4.45;;;3.42;;
78055;SDS011;67666;55.862;49.094;2023-02-28T01:34:50;4.20;;;3.35;;
78055;SDS011;67666;55.862;49.094;2023-02-28T01:37:17;4.70;;;4.22;;
78055;SDS011;67666;55.862;49.094;2023-02-28T01:39:43;5.20;;;3.80;;
78055;SDS011;67666;55.862;49.094;2023-02-28T01:42:09;3.60;;;3.22;;
78055;SDS011;67666;55.862;49.094;2023-02-28T01:47:28;4.65;;;3.47;;
78055;SDS011;67666;55.862;49.094;2023-02-28T01:49:58;4.38;;;3.58;;
78055;SDS011;67666;55.862;49.094;2023-02-28T01:52:26;3.72;;;3.25;;
78055;SDS011;67666;55.862;49.094;2023-02-28T01:54:54;3.88;;;3.42;;
78055;SDS011;67666;55.862;49.094;2023-02-28T01:57:25;3.72;;;3.03;;
78055;SDS011;67666;55.862;49.094;2023-02-28T02:00:22;4.05;;;3.33;;
78055;SDS011;67666;55.862;49.094;2023-02-28T02:02:53;4.30;;;3.70;;
78055;SDS011;67666;55.862;49.094;2023-02-28T02:05:32;3.90;;;3.50;;
78055;SDS011;67666;55.862;49.094;2023-02-28T02:08:06;4.07;;;3.63;;
78055;SDS011;67666;55.862;49.094;2023-02-28T02:10:54;4.30;;;3.13;;
78055;SDS011;67666;55.862;49.094;2023-02-28T02:30:18;3.40;;;2.83;;
78055;SDS011;67666;55.862;49.094;2023-02-28T02:38:35;3.97;;;3.22;;
78055;SDS011;67666;55.862;49.094;2023-02-28T02:41:17;4.05;;;3.30;;
78055;SDS011;67666;55.862;49.094;2023-02-28T02:44:01;4.15;;;3.22;;
78055;SDS011;67666;55.862;49.094;2023-02-28T02:46:38;3.47;;;3.10;;
78055;SDS011;67666;55.862;49.094;2023-02-28T02:49:09;4.28;;;3.63;;
78055;SDS011;67666;55.862;49.094;2023-02-28T02:51:41;3.67;;;3.28;;
78055;SDS011;67666;55.862;49.094;2023-02-28T02:54:12;3.92;;;3.03;;
78055;SDS011;67666;55.862;49.094;2023-02-28T02:59:12;4.13;;;3.42;;
78055;SDS011;67666;55.862;49.094;2023-02-28T03:01:49;3.70;;;3.30;;
78055;SDS011;67666;55.862;49.094;2023-02-28T03:04:19;3.92;;;3.20;;
78055;SDS011;67666;55.862;49.094;2023-02-28T03:06:47;4.03;;;3.20;;
78055;SDS011;67666;55.862;49.094;2023-02-28T03:09:16;4.25;;;3.30;;
78055;SDS011;67666;55.862;49.094;2023-02-28T03:11:42;4.32;;;3.42;;
78055;SDS011;67666;55.862;49.094;2023-02-28T03:14:10;3.78;;;3.20;;
78055;SDS011;67666;55.862;49.094;2023-02-28T03:20:01;4.10;;;3.17;;
78055;SDS011;67666;55.862;49.094;2023-02-28T03:22:57;3.80;;;3.30;;
78055;SDS011;67666;55.862;49.094;2023-02-28T03:25:46;3.55;;;3.05;;
78055;SDS011;67666;55.862;49.094;2023-02-28T03:28:27;3.58;;;2.97;;
78055;SDS011;67666;55.862;49.094;2023-02-28T03:34:14;3.80;;;3.30;;
78055;SDS011;67666;55.862;49.094;2023-02-28T03:36:47;3.83;;;3.15;;
78055;SDS011;67666;55.862;49.094;2023-02-28T03:39:20;3.45;;;2.70;;
78055;SDS011;67666;55.862;49.094;2023-02-28T03:41:54;3.53;;;2.72;;
78055;SDS011;67666;55.862;49.094;2023-02-28T03:44:24;3.28;;;2.97;;
78055;SDS011;67666;55.862;49.094;2023-02-28T03:46:54;3.10;;;2.80;;
78055;SDS011;67666;55.862;49.094;2023-02-28T03:49:32;3.15;;;2.85;;
78055;SDS011;67666;55.862;49.094;2023-02-28T03:52:09;2.88;;;2.38;;
78055;SDS011;67666;55.862;49.094;2023-02-28T03:54:37;3.47;;;2.63;;
78055;SDS011;67666;55.862;49.094;2023-02-28T03:57:23;3.60;;;2.42;;
78055;SDS011;67666;55.862;49.094;2023-02-28T04:00:10;3.47;;;2.60;;
78055;SDS011;67666;55.862;49.094;2023-02-28T04:02:41;3.65;;;2.70;;
78055;SDS011;67666;55.862;49.094;2023-02-28T04:05:07;3.38;;;2.72;;
78055;SDS011;67666;55.862;49.094;2023-02-28T04:07:34;3.42;;;2.60;;
78055;SDS011;67666;55.862;49.094;2023-02-28T04:10:01;4.07;;;2.95;;
78055;SDS011;67666;55.862;49.094;2023-02-28T04:12:27;3.42;;;2.55;;
78055;SDS011;67666;55.862;49.094;2023-02-28T04:14:53;2.97;;;2.35;;
78055;SDS011;67666;55.862;49.094;2023-02-28T04:17:20;3.75;;;2.67;;
78055;SDS011;67666;55.862;49.094;2023-02-28T04:19:46;4.05;;;2.63;;
78055;SDS011;67666;55.862;49.094;2023-02-28T04:22:13;3.40;;;2.67;;
78055;SDS011;67666;55.862;49.094;2023-02-28T04:24:39;3.80;;;2.55;;
78055;SDS011;67666;55.862;49.094;2023-02-28T04:27:08;4.60;;;2.95;;
78055;SDS011;67666;55.862;49.094;2023-02-28T04:32:02;3.00;;;2.65;;
78055;SDS011;67666;55.862;49.094;2023-02-28T04:34:29;4.63;;;2.45;;
78055;SDS011;67666;55.862;49.094;2023-02-28T04:36:57;4.63;;;2.72;;
78055;SDS011;67666;55.862;49.094;2023-02-28T04:41:50;3.38;;;2.42;;
78055;SDS011;67666;55.862;49.094;2023-02-28T04:44:17;3.30;;;2.60;;
78055;SDS011;67666;55.862;49.094;2023-02-28T04:46:43;4.45;;;2.75;;
78055;SDS011;67666;55.862;49.094;2023-02-28T04:49:10;4.43;;;2.80;;
78055;SDS011;67666;55.862;49.094;2023-02-28T04:51:37;4.63;;;2.72;;
78055;SDS011;67666;55.862;49.094;2023-02-28T04:54:04;3.25;;;2.55;;
78055;SDS011;67666;55.862;49.094;2023-02-28T04:56:31;4.03;;;2.88;;
78055;SDS011;67666;55.862;49.094;2023-02-28T04:58:58;3.65;;;2.63;;
78055;SDS011;67666;55.862;49.094;2023-02-28T05:03:56;4.75;;;3.30;;
78055;SDS011;67666;55.862;49.094;2023-02-28T05:06:24;3.72;;;2.90;;
78055;SDS011;67666;55.862;49.094;2023-02-28T05:08:52;3.25;;;2.75;;
78055;SDS011;67666;55.862;49.094;2023-02-28T05:11:20;3.40;;;2.97;;
78055;SDS011;67666;55.862;49.094;2023-02-28T05:13:49;3.55;;;2.72;;
78055;SDS011;67666;55.862;49.094;2023-02-28T05:16:16;3.45;;;2.60;;
78055;SDS011;67666;55.862;49.094;2023-02-28T05:18:43;3.13;;;2.83;;
78055;SDS011;67666;55.862;49.094;2023-02-28T05:23:50;3.45;;;2.75;;
78055;SDS011;67666;55.862;49.094;2023-02-28T05:26:18;3.75;;;2.67;;
78055;SDS011;67666;55.862;49.094;2023-02-28T05:31:11;3.38;;;2.78;;
78055;SDS011;67666;55.862;49.094;2023-02-28T05:33:37;4.00;;;3.22;;
78055;SDS011;67666;55.862;49.094;2023-02-28T05:36:04;3.90;;;2.78;;
78055;SDS011;67666;55.862;49.094;2023-02-28T05:38:31;3.63;;;2.83;;
78055;SDS011;67666;55.862;49.094;2023-02-28T05:40:57;4.40;;;3.15;;
78055;SDS011;67666;55.862;49.094;2023-02-28T05:45:51;4.53;;;3.08;;
78055;SDS011;67666;55.862;49.094;2023-02-28T05:48:17;3.78;;;3.30;;
78055;SDS011;67666;55.862;49.094;2023-02-28T05:50:43;5.43;;;3.45;;
78055;SDS011;67666;55.862;49.094;2023-02-28T05:53:11;6.00;;;3.38;;
78055;SDS011;67666;55.862;49.094;2023-02-28T05:55:38;3.78;;;3.25;;
78055;SDS011;67666;55.862;49.094;2023-02-28T05:58:05;4.13;;;3.40;;
78055;SDS011;67666;55.862;49.094;2023-02-28T06:00:31;4.95;;;3.90;;
78055;SDS011;67666;55.862;49.094;2023-02-28T06:02:57;5.13;;;3.75;;
78055;SDS011;67666;55.862;49.094;2023-02-28T06:05:27;4.50;;;3.60;;
78055;SDS011;67666;55.862;49.094;2023-02-28T06:07:53;4.80;;;3.60;;
78055;SDS011;67666;55.862;49.094;2023-02-28T06:10:20;4.88;;;3.40;;
78055;SDS011;67666;55.862;49.094;2023-02-28T06:12:46;4.82;;;3.92;;
78055;SDS011;67666;55.862;49.094;2023-02-28T06:15:13;5.90;;;4.32;;
78055;SDS011;67666;55.862;49.094;2023-02-28T06:17:41;5.25;;;3.65;;
78055;SDS011;67666;55.862;49.094;2023-02-28T06:20:09;5.78;;;3.90;;
78055;SDS011;67666;55.862;49.094;2023-02-28T06:22:38;5.53;;;3.70;;
78055;SDS011;67666;55.862;49.094;2023-02-28T06:25:05;4.63;;;3.35;;
78055;SDS011;67666;55.862;49.094;2023-02-28T06:27:33;5.60;;;4.00;;
78055;SDS011;67666;55.862;49.094;2023-02-28T06:29:59;6.82;;;3.80;;
78055;SDS011;67666;55.862;49.094;2023-02-28T06:32:26;5.32;;;3.67;;
78055;SDS011;67666;55.862;49.094;2023-02-28T06:34:52;5.93;;;3.67;;
78055;SDS011;67666;55.862;49.094;2023-02-28T06:37:19;5.63;;;3.40;;
78055;SDS011;67666;55.862;49.094;2023-02-28T06:39:45;4.80;;;3.47;;
78055;SDS011;67666;55.862;49.094;2023-02-28T06:42:12;5.20;;;3.17;;
78055;SDS011;67666;55.862;49.094;2023-02-28T06:44:38;4.90;;;3.25;;
78055;SDS011;67666;55.862;49.094;2023-02-28T06:47:05;4.68;;;3.40;;
78055;SDS011;67666;55.862;49.094;2023-02-28T06:49:33;4.35;;;3.22;;
78055;SDS011;67666;55.862;49.094;2023-02-28T06:52:00;3.97;;;2.90;;
78055;SDS011;67666;55.862;49.094;2023-02-28T06:54:27;4.30;;;3.03;;
78055;SDS011;67666;55.862;49.094;2023-02-28T06:56:53;4.78;;;3.60;;
78055;SDS011;67666;55.862;49.094;2023-02-28T06:59:22;4.13;;;2.67;;
78055;SDS011;67666;55.862;49.094;2023-02-28T07:01:48;4.25;;;3.10;;
78055;SDS011;67666;55.862;49.094;2023-02-28T07:04:15;4.13;;;3.42;;
78055;SDS011;67666;55.862;49.094;2023-02-28T07:06:41;4.50;;;3.00;;
78055;SDS011;67666;55.862;49.094;2023-02-28T07:09:07;3.03;;;2.55;;
78055;SDS011;67666;55.862;49.094;2023-02-28T07:11:33;4.45;;;3.17;;
78055;SDS011;67666;55.862;49.094;2023-02-28T07:14:00;3.30;;;2.95;;
78055;SDS011;67666;55.862;49.094;2023-02-28T07:16:26;3.97;;;3.17;;
78055;SDS011;67666;55.862;49.094;2023-02-28T07:18:53;5.00;;;2.67;;
78055;SDS011;67666;55.862;49.094;2023-02-28T07:21:19;4.95;;;3.10;;
78055;SDS011;67666;55.862;49.094;2023-02-28T07:23:46;3.63;;;3.08;;
78055;SDS011;67666;55.862;49.094;2023-02-28T07:26:13;5.38;;;3.33;;
78055;SDS011;67666;55.862;49.094;2023-02-28T07:28:43;4.63;;;2.90;;
78055;SDS011;67666;55.862;49.094;2023-02-28T07:31:11;3.90;;;2.90;;
78055;SDS011;67666;55.862;49.094;2023-02-28T07:33:39;3.72;;;2.65;;
78055;SDS011;67666;55.862;49.094;2023-02-28T07:38:35;2.95;;;2.17;;
78055;SDS011;67666;55.862;49.094;2023-02-28T07:41:03;3.88;;;2.85;;
78055;SDS011;67666;55.862;49.094;2023-02-28T07:43:33;4.30;;;2.65;;
78055;SDS011;67666;55.862;49.094;2023-02-28T07:46:07;3.03;;;2.28;;
78055;SDS011;67666;55.862;49.094;2023-02-28T07:48:35;3.55;;;2.10;;
78055;SDS011;67666;55.862;49.094;2023-02-28T07:51:02;3.78;;;2.33;;
78055;SDS011;67666;55.862;49.094;2023-02-28T07:53:28;3.55;;;2.35;;
78055;SDS011;67666;55.862;49.094;2023-02-28T07:55:58;3.13;;;2.10;;
78055;SDS011;67666;55.862;49.094;2023-02-28T07:58:26;3.85;;;2.15;;
78055;SDS011;67666;55.862;49.094;2023-02-28T08:00:54;3.67;;;2.00;;
78055;SDS011;67666;55.862;49.094;2023-02-28T08:03:21;3.20;;;2.55;;
78055;SDS011;67666;55.862;49.094;2023-02-28T08:05:48;2.67;;;2.03;;
78055;SDS011;67666;55.862;49.094;2023-02-28T08:08:15;2.55;;;1.90;;
78055;SDS011;67666;55.862;49.094;2023-02-28T08:10:42;2.63;;;2.08;;
78055;SDS011;67666;55.862;49.094;2023-02-28T08:13:09;2.35;;;2.00;;
78055;SDS011;67666;55.862;49.094;2023-02-28T08:15:35;3.10;;;2.28;;
78055;SDS011;67666;55.862;49.094;2023-02-28T08:18:02;2.92;;;2.30;;
78055;SDS011;67666;55.862;49.094;2023-02-28T08:20:28;2.85;;;2.03;;
78055;SDS011;67666;55.862;49.094;2023-02-28T08:22:54;3.33;;;1.88;;
78055;SDS011;67666;55.862;49.094;2023-02-28T08:25:21;2.95;;;2.13;;
78055;SDS011;67666;55.862;49.094;2023-02-28T08:27:47;2.38;;;2.10;;
78055;SDS011;67666;55.862;49.094;2023-02-28T08:30:13;2.50;;;1.95;;
78055;SDS011;67666;55.862;49.094;2023-02-28T08:32:41;3.17;;;1.85;;
78055;SDS011;67666;55.862;49.094;2023-02-28T08:35:07;2.58;;;1.67;;
78055;SDS011;67666;55.862;49.094;2023-02-28T08:37:35;2.80;;;1.85;;
78055;SDS011;67666;55.862;49.094;2023-02-28T08:40:01;2.65;;;2.00;;
78055;SDS011;67666;55.862;49.094;2023-02-28T08:42:29;3.38;;;1.90;;
78055;SDS011;67666;55.862;49.094;2023-02-28T08:44:56;4.38;;;2.05;;
78055;SDS011;67666;55.862;49.094;2023-02-28T08:47:22;3.20;;;2.00;;
78055;SDS011;67666;55.862;49.094;2023-02-28T08:49:48;2.50;;;1.75;;
78055;SDS011;67666;55.862;49.094;2023-02-28T08:52:14;2.55;;;1.92;;
78055;SDS011;67666;55.862;49.094;2023-02-28T08:54:41;2.60;;;2.15;;
78055;SDS011;67666;55.862;49.094;2023-02-28T08:57:07;2.80;;;1.85;;
78055;SDS011;67666;55.862;49.094;2023-02-28T08:59:33;2.25;;;1.52;;
78055;SDS011;67666;55.862;49.094;2023-02-28T09:02:00;3.78;;;1.70;;
78055;SDS011;67666;55.862;49.094;2023-02-28T09:04:26;1.98;;;1.70;;
78055;SDS011;67666;55.862;49.094;2023-02-28T09:06:52;2.10;;;1.50;;
78055;SDS011;67666;55.862;49.094;2023-02-28T09:09:19;2.42;;;1.50;;
78055;SDS011;67666;55.862;49.094;2023-02-28T09:11:45;2.55;;;1.63;;
78055;SDS011;67666;55.862;49.094;2023-02-28T09:14:11;2.83;;;1.85;;
78055;SDS011;67666;55.862;49.094;2023-02-28T09:16:37;2.33;;;1.60;;
78055;SDS011;67666;55.862;49.094;2023-02-28T09:19:04;2.50;;;1.98;;
78055;SDS011;67666;55.862;49.094;2023-02-28T09:21:30;2.88;;;1.90;;
78055;SDS011;67666;55.862;49.094;2023-02-28T09:23:56;1.90;;;1.48;;
78055;SDS011;67666;55.862;49.094;2023-02-28T09:26:24;1.95;;;1.38;;
78055;SDS011;67666;55.862;49.094;2023-02-28T09:28:52;1.92;;;1.48;;
78055;SDS011;67666;55.862;49.094;2023-02-28T09:31:21;3.17;;;1.95;;
78055;SDS011;67666;55.862;49.094;2023-02-28T09:33:50;2.33;;;1.80;;
78055;SDS011;67666;55.862;49.094;2023-02-28T09:36:17;1.98;;;1.45;;
78055;SDS011;67666;55.862;49.094;2023-02-28T09:41:16;2.30;;;1.52;;
78055;SDS011;67666;55.862;49.094;2023-02-28T09:46:40;2.50;;;1.42;;
78055;SDS011;67666;55.862;49.094;2023-02-28T09:49:11;2.17;;;1.40;;
78055;SDS011;67666;55.862;49.094;2023-02-28T09:54:12;2.80;;;1.45;;
78055;SDS011;67666;55.862;49.094;2023-02-28T09:56:45;1.83;;;1.58;;
78055;SDS011;67666;55.862;49.094;2023-02-28T09:59:29;2.20;;;1.52;;
78055;SDS011;67666;55.862;49.094;2023-02-28T10:02:32;1.50;;;1.33;;
78055;SDS011;67666;55.862;49.094;2023-02-28T10:05:12;2.30;;;1.70;;
78055;SDS011;67666;55.862;49.094;2023-02-28T10:10:39;2.03;;;1.60;;
78055;SDS011;67666;55.862;49.094;2023-02-28T10:13:33;1.90;;;1.48;;
78055;SDS011;67666;55.862;49.094;2023-02-28T10:16:06;2.20;;;1.40;;
78055;SDS011;67666;55.862;49.094;2023-02-28T10:19:22;2.58;;;1.52;;
78055;SDS011;67666;55.862;49.094;2023-02-28T10:21:36;2.25;;;1.63;;
78055;SDS011;67666;55.862;49.094;2023-02-28T10:29:57;2.15;;;1.70;;
78055;SDS011;67666;55.862;49.094;2023-02-28T10:37:41;2.08;;;1.42;;
78055;SDS011;67666;55.862;49.094;2023-02-28T10:45:23;2.30;;;1.70;;
78055;SDS011;67666;55.862;49.094;2023-02-28T10:50:39;2.40;;;1.60;;
78055;SDS011;67666;55.862;49.094;2023-02-28T11:03:45;1.80;;;1.30;;
78055;SDS011;67666;55.862;49.094;2023-02-28T11:09:02;2.30;;;1.17;;
78055;SDS011;67666;55.862;49.094;2023-02-28T11:11:41;6.10;;;1.65;;
78055;SDS011;67666;55.862;49.094;2023-02-28T11:14:46;2.30;;;1.50;;
78055;SDS011;67666;55.862;49.094;2023-02-28T11:17:15;3.42;;;1.63;;
78055;SDS011;67666;55.862;49.094;2023-02-28T11:19:50;2.40;;;1.65;;
78055;SDS011;67666;55.862;49.094;2023-02-28T11:22:20;1.73;;;1.40;;
78055;SDS011;67666;55.862;49.094;2023-02-28T11:24:50;2.88;;;1.35;;
78055;SDS011;67666;55.862;49.094;2023-02-28T11:29:58;2.10;;;1.40;;
78055;SDS011;67666;55.862;49.094;2023-02-28T11:32:26;2.85;;;1.75;;
78055;SDS011;67666;55.862;49.094;2023-02-28T11:37:37;2.30;;;1.50;;
78055;SDS011;67666;55.862;49.094;2023-02-28T11:40:49;2.58;;;1.50;;
78055;SDS011;67666;55.862;49.094;2023-02-28T11:42:59;2.42;;;1.42;;
78055;SDS011;67666;55.862;49.094;2023-02-28T11:48:32;2.20;;;1.63;;
78055;SDS011;67666;55.862;49.094;2023-02-28T11:51:11;3.10;;;1.65;;
78055;SDS011;67666;55.862;49.094;2023-02-28T11:56:47;1.70;;;1.40;;
78055;SDS011;67666;55.862;49.094;2023-02-28T12:27:09;2.00;;;1.25;;
78055;SDS011;67666;55.862;49.094;2023-02-28T12:29:46;3.13;;;1.52;;
78055;SDS011;67666;55.862;49.094;2023-02-28T12:32:25;3.67;;;1.70;;
78055;SDS011;67666;55.862;49.094;2023-02-28T12:37:47;1.65;;;1.38;;
78055;SDS011;67666;55.862;49.094;2023-02-28T12:40:21;1.75;;;1.48;;
78055;SDS011;67666;55.862;49.094;2023-02-28T12:42:51;1.75;;;1.33;;
78055;SDS011;67666;55.862;49.094;2023-02-28T12:45:23;2.78;;;1.60;;
78055;SDS011;67666;55.862;49.094;2023-02-28T12:47:52;2.00;;;1.27;;
78055;SDS011;67666;55.862;49.094;2023-02-28T12:50:28;2.00;;;1.33;;
78055;SDS011;67666;55.862;49.094;2023-02-28T12:53:06;2.88;;;1.58;;
78055;SDS011;67666;55.862;49.094;2023-02-28T13:04:08;2.90;;;1.63;;
78055;SDS011;67666;55.862;49.094;2023-02-28T13:09:35;2.00;;;1.40;;
78055;SDS011;67666;55.862;49.094;2023-02-28T13:12:01;3.35;;;1.50;;
78055;SDS011;67666;55.862;49.094;2023-02-28T13:14:37;2.58;;;1.48;;
78055;SDS011;67666;55.862;49.094;2023-02-28T13:19:56;1.88;;;1.40;;
78055;SDS011;67666;55.862;49.094;2023-02-28T13:22:43;2.40;;;1.90;;
78055;SDS011;67666;55.862;49.094;2023-02-28T13:28:00;2.25;;;1.70;;
78055;SDS011;67666;55.862;49.094;2023-02-28T13:33:25;1.80;;;1.20;;
78055;SDS011;67666;55.862;49.094;2023-02-28T13:46:34;2.58;;;1.25;;
78055;SDS011;67666;55.862;49.094;2023-02-28T13:49:17;3.08;;;1.05;;
78055;SDS011;67666;55.862;49.094;2023-02-28T13:52:12;2.95;;;1.40;;
78055;SDS011;67666;55.862;49.094;2023-02-28T14:01:02;1.88;;;1.23;;
78055;SDS011;67666;55.862;49.094;2023-02-28T14:03:55;1.88;;;1.20;;
78055;SDS011;67666;55.862;49.094;2023-02-28T14:08:57;2.15;;;1.42;;
78055;SDS011;67666;55.862;49.094;2023-02-28T14:11:36;2.92;;;1.45;;
78055;SDS011;67666;55.862;49.094;2023-02-28T14:14:04;2.38;;;1.20;;
78055;SDS011;67666;55.862;49.094;2023-02-28T14:19:13;1.88;;;1.13;;
78055;SDS011;67666;55.862;49.094;2023-02-28T14:35:02;2.30;;;1.33;;
78055;SDS011;67666;55.862;49.094;2023-02-28T14:37:53;2.17;;;1.67;;
78055;SDS011;67666;55.862;49.094;2023-02-28T14:40:29;1.73;;;1.20;;
78055;SDS011;67666;55.862;49.094;2023-02-28T14:42:59;2.15;;;1.27;;
78055;SDS011;67666;55.862;49.094;2023-02-28T14:45:29;2.38;;;1.33;;
78055;SDS011;67666;55.862;49.094;2023-02-28T14:47:56;2.05;;;1.30;;
78055;SDS011;67666;55.862;49.094;2023-02-28T14:50:29;2.25;;;1.40;;
78055;SDS011;67666;55.862;49.094;2023-02-28T14:52:57;3.55;;;1.30;;
78055;SDS011;67666;55.862;49.094;2023-02-28T14:55:26;2.63;;;1.40;;
78055;SDS011;67666;55.862;49.094;2023-02-28T14:57:57;2.45;;;1.77;;
78055;SDS011;67666;55.862;49.094;2023-02-28T15:00:29;2.63;;;1.50;;
78055;SDS011;67666;55.862;49.094;2023-02-28T15:02:58;1.80;;;1.38;;
78055;SDS011;67666;55.862;49.094;2023-02-28T15:05:30;1.83;;;1.27;;
78055;SDS011;67666;55.862;49.094;2023-02-28T15:08:12;2.75;;;1.38;;
78055;SDS011;67666;55.862;49.094;2023-02-28T15:10:44;3.30;;;1.42;;
78055;SDS011;67666;55.862;49.094;2023-02-28T15:13:17;4.55;;;1.50;;
78055;SDS011;67666;55.862;49.094;2023-02-28T15:18:47;2.88;;;1.65;;
78055;SDS011;67666;55.862;49.094;2023-02-28T15:21:19;2.33;;;1.50;;
78055;SDS011;67666;55.862;49.094;2023-02-28T15:24:07;2.13;;;1.48;;
78055;SDS011;67666;55.862;49.094;2023-02-28T15:26:39;2.47;;;1.58;;
78055;SDS011;67666;55.862;49.094;2023-02-28T15:31:53;3.42;;;1.80;;
78055;SDS011;67666;55.862;49.094;2023-02-28T15:34:26;2.53;;;1.52;;
78055;SDS011;67666;55.862;49.094;2023-02-28T15:37:00;2.30;;;1.70;;
78055;SDS011;67666;55.862;49.094;2023-02-28T15:39:28;2.53;;;1.80;;
78055;SDS011;67666;55.862;49.094;2023-02-28T15:44:54;3.08;;;1.55;;
78055;SDS011;67666;55.862;49.094;2023-02-28T15:47:24;2.63;;;1.77;;
78055;SDS011;67666;55.862;49.094;2023-02-28T15:50:03;2.85;;;1.73;;
78055;SDS011;67666;55.862;49.094;2023-02-28T15:57:53;2.15;;;1.65;;
78055;SDS011;67666;55.862;49.094;2023-02-28T16:00:23;2.30;;;1.58;;
78055;SDS011;67666;55.862;49.094;2023-02-28T16:02:51;2.75;;;1.90;;
78055;SDS011;67666;55.862;49.094;2023-02-28T16:07:47;2.92;;;1.67;;
78055;SDS011;67666;55.862;49.094;2023-02-28T16:10:14;1.83;;;1.30;;
78055;SDS011;67666;55.862;49.094;2023-02-28T16:13:11;2.20;;;1.25;;
78055;SDS011;67666;55.862;49.094;2023-02-28T16:15:42;2.17;;;1.55;;
78055;SDS011;67666;55.862;49.094;2023-02-28T16:18:15;2.65;;;1.65;;
78055;SDS011;67666;55.862;49.094;2023-02-28T16:20:42;2.63;;;1.73;;
78055;SDS011;67666;55.862;49.094;2023-02-28T16:23:10;2.65;;;1.52;;
78055;SDS011;67666;55.862;49.094;2023-02-28T16:25:37;2.95;;;1.95;;
78055;SDS011;67666;55.862;49.094;2023-02-28T16:28:10;2.67;;;1.80;;
78055;SDS011;67666;55.862;49.094;2023-02-28T16:30:59;2.85;;;1.48;;
78055;SDS011;67666;55.862;49.094;2023-02-28T16:33:29;3.15;;;1.80;;
78055;SDS011;67666;55.862;49.094;2023-02-28T16:35:55;2.95;;;2.13;;
78055;SDS011;67666;55.862;49.094;2023-02-28T16:38:22;2.60;;;1.55;;
78055;SDS011;67666;55.862;49.094;2023-02-28T16:40:50;2.85;;;2.05;;
78055;SDS011;67666;55.862;49.094;2023-02-28T16:43:26;2.22;;;1.67;;
78055;SDS011;67666;55.862;49.094;2023-02-28T16:45:54;2.95;;;1.80;;
78055;SDS011;67666;55.862;49.094;2023-02-28T16:48:24;2.00;;;1.60;;
78055;SDS011;67666;55.862;49.094;2023-02-28T16:50:50;2.78;;;1.55;;
78055;SDS011;67666;55.862;49.094;2023-02-28T16:53:17;2.85;;;1.83;;
78055;SDS011;67666;55.862;49.094;2023-02-28T16:55:43;3.60;;;2.10;;
78055;SDS011;67666;55.862;49.094;2023-02-28T16:58:13;2.33;;;1.52;;
78055;SDS011;67666;55.862;49.094;2023-02-28T17:00:41;2.78;;;1.90;;
78055;SDS011;67666;55.862;49.094;2023-02-28T17:03:13;1.90;;;1.58;;
78055;SDS011;67666;55.862;49.094;2023-02-28T17:05:53;1.98;;;1.48;;
78055;SDS011;67666;55.862;49.094;2023-02-28T17:08:22;2.25;;;1.90;;
78055;SDS011;67666;55.862;49.094;2023-02-28T17:10:49;3.58;;;1.75;;
78055;SDS011;67666;55.862;49.094;2023-02-28T17:13:16;2.28;;;1.70;;
78055;SDS011;67666;55.862;49.094;2023-02-28T17:15:46;2.05;;;1.70;;
78055;SDS011;67666;55.862;49.094;2023-02-28T17:18:17;3.90;;;2.97;;
78055;SDS011;67666;55.862;49.094;2023-02-28T17:20:46;3.50;;;2.30;;
78055;SDS011;67666;55.862;49.094;2023-02-28T17:23:13;2.97;;;2.22;;
78055;SDS011;67666;55.862;49.094;2023-02-28T17:25:40;3.95;;;2.47;;
78055;SDS011;67666;55.862;49.094;2023-02-28T17:28:15;3.75;;;2.35;;
78055;SDS011;67666;55.862;49.094;2023-02-28T17:30:41;3.78;;;2.25;;
78055;SDS011;67666;55.862;49.094;2023-02-28T17:33:12;3.95;;;2.88;;
78055;SDS011;67666;55.862;49.094;2023-02-28T17:35:39;5.90;;;2.72;;
78055;SDS011;67666;55.862;49.094;2023-02-28T17:38:07;3.38;;;2.25;;
78055;SDS011;67666;55.862;49.094;2023-02-28T17:40:45;4.50;;;2.85;;
78055;SDS011;67666;55.862;49.094;2023-02-28T17:43:40;5.80;;;3.17;;
78055;SDS011;67666;55.862;49.094;2023-02-28T17:46:20;4.97;;;3.22;;
78055;SDS011;67666;55.862;49.094;2023-02-28T17:48:48;5.25;;;3.50;;
78055;SDS011;67666;55.862;49.094;2023-02-28T17:51:16;5.78;;;3.58;;
78055;SDS011;67666;55.862;49.094;2023-02-28T17:53:43;8.15;;;4.07;;
78055;SDS011;67666;55.862;49.094;2023-02-28T17:58:40;5.95;;;3.22;;
78055;SDS011;67666;55.862;49.094;2023-02-28T18:01:07;4.30;;;3.15;;
78055;SDS011;67666;55.862;49.094;2023-02-28T18:03:33;5.10;;;3.00;;
78055;SDS011;67666;55.862;49.094;2023-02-28T18:06:00;4.75;;;3.10;;
78055;SDS011;67666;55.862;49.094;2023-02-28T18:08:27;5.68;;;3.35;;
78055;SDS011;67666;55.862;49.094;2023-02-28T18:10:53;6.75;;;3.55;;
78055;SDS011;67666;55.862;49.094;2023-02-28T18:13:19;5.57;;;3.50;;
78055;SDS011;67666;55.862;49.094;2023-02-28T18:15:46;5.35;;;3.00;;
78055;SDS011;67666;55.862;49.094;2023-02-28T18:18:13;4.25;;;2.70;;
78055;SDS011;67666;55.862;49.094;2023-02-28T18:20:41;5.63;;;3.20;;
78055;SDS011;67666;55.862;49.094;2023-02-28T18:23:07;5.15;;;3.28;;
78055;SDS011;67666;55.862;49.094;2023-02-28T18:25:33;6.13;;;2.90;;